sensor_id;sensor_type;location;lat;lon;timestamp;temperature;humidity
17988;DHT22;9119;50.932;5.342;2022-09-12T00:01:51;16.10;99.90
17988;DHT22;9119;50.932;5.342;2022-09-12T00:04:17;16.10;99.90
17988;DHT22;9119;50.932;5.342;2022-09-12T00:06:42;16.10;99.90
17988;DHT22;9119;50.932;5.342;2022-09-12T00:09:11;16.10;99.90
17988;DHT22;9119;50.932;5.342;2022-09-12T00:11:39;16.00;99.90
17988;DHT22;9119;50.932;5.342;2022-09-12T00:14:10;16.00;99.90
17988;DHT22;9119;50.932;5.342;2022-09-12T00:16:36;16.10;99.90
17988;DHT22;9119;50.932;5.342;2022-09-12T00:19:03;16.10;99.90
17988;DHT22;9119;50.932;5.342;2022-09-12T00:21:32;16.00;99.90
17988;DHT22;9119;50.932;5.342;2022-09-12T00:23:58;16.00;99.90
17988;DHT22;9119;50.932;5.342;2022-09-12T00:26:24;16.00;99.90
17988;DHT22;9119;50.932;5.342;2022-09-12T00:28:50;16.00;99.90
17988;DHT22;9119;50.932;5.342;2022-09-12T00:31:19;15.90;99.90
17988;DHT22;9119;50.932;5.342;2022-09-12T00:33:45;15.90;99.90
17988;DHT22;9119;50.932;5.342;2022-09-12T00:36:16;15.90;99.90
17988;DHT22;9119;50.932;5.342;2022-09-12T00:38:44;15.90;99.90
17988;DHT22;9119;50.932;5.342;2022-09-12T00:41:23;15.80;99.90
17988;DHT22;9119;50.932;5.342;2022-09-12T00:43:54;15.80;99.90
17988;DHT22;9119;50.932;5.342;2022-09-12T00:46:44;15.70;99.90
17988;DHT22;9119;50.932;5.342;2022-09-12T00:49:18;15.70;99.90
17988;DHT22;9119;50.932;5.342;2022-09-12T00:51:51;15.60;99.90
17988;DHT22;9119;50.932;5.342;2022-09-12T00:54:22;15.60;99.90
17988;DHT22;9119;50.932;5.342;2022-09-12T00:56:53;15.50;99.90
17988;DHT22;9119;50.932;5.342;2022-09-12T00:59:24;15.40;99.90
17988;DHT22;9119;50.932;5.342;2022-09-12T01:01:52;15.70;99.90
17988;DHT22;9119;50.932;5.342;2022-09-12T01:04:21;15.50;99.90
17988;DHT22;9119;50.932;5.342;2022-09-12T01:06:47;15.60;99.90
17988;DHT22;9119;50.932;5.342;2022-09-12T01:09:18;15.50;99.90
17988;DHT22;9119;50.932;5.342;2022-09-12T01:11:45;15.40;99.90
17988;DHT22;9119;50.932;5.342;2022-09-12T01:14:13;15.40;99.90
17988;DHT22;9119;50.932;5.342;2022-09-12T01:16:39;15.40;99.90
17988;DHT22;9119;50.932;5.342;2022-09-12T01:22:32;15.40;99.90
17988;DHT22;9119;50.932;5.342;2022-09-12T01:35:59;15.50;99.90
17988;DHT22;9119;50.932;5.342;2022-09-12T01:38:44;15.50;99.90
17988;DHT22;9119;50.932;5.342;2022-09-12T01:41:35;15.40;99.90
17988;DHT22;9119;50.932;5.342;2022-09-12T01:44:24;15.40;99.90
17988;DHT22;9119;50.932;5.342;2022-09-12T01:49:59;15.30;99.90
17988;DHT22;9119;50.932;5.342;2022-09-12T01:52:43;15.20;99.90
17988;DHT22;9119;50.932;5.342;2022-09-12T01:55:21;15.10;99.90
17988;DHT22;9119;50.932;5.342;2022-09-12T02:03:17;15.10;99.90
17988;DHT22;9119;50.932;5.342;2022-09-12T02:05:58;15.10;99.90
17988;DHT22;9119;50.932;5.342;2022-09-12T02:09:02;15.10;99.90
17988;DHT22;9119;50.932;5.342;2022-09-12T02:11:25;15.00;99.90
17988;DHT22;9119;50.932;5.342;2022-09-12T02:13:57;15.00;99.90
17988;DHT22;9119;50.932;5.342;2022-09-12T02:16:31;14.90;99.90
17988;DHT22;9119;50.932;5.342;2022-09-12T02:19:06;14.90;99.90
17988;DHT22;9119;50.932;5.342;2022-09-12T02:21:34;14.80;99.90
17988;DHT22;9119;50.932;5.342;2022-09-12T02:24:02;14.90;99.90
17988;DHT22;9119;50.932;5.342;2022-09-12T02:26:34;14.80;99.90
17988;DHT22;9119;50.932;5.342;2022-09-12T02:29:03;14.70;99.90
17988;DHT22;9119;50.932;5.342;2022-09-12T02:31:46;14.70;99.90
17988;DHT22;9119;50.932;5.342;2022-09-12T02:39:43;14.60;99.90
17988;DHT22;9119;50.932;5.342;2022-09-12T02:42:09;14.60;99.90
17988;DHT22;9119;50.932;5.342;2022-09-12T02:44:35;14.70;99.90
17988;DHT22;9119;50.932;5.342;2022-09-12T02:47:09;14.60;99.90
17988;DHT22;9119;50.932;5.342;2022-09-12T02:49:36;14.60;99.90
17988;DHT22;9119;50.932;5.342;2022-09-12T02:52:02;14.60;99.90
17988;DHT22;9119;50.932;5.342;2022-09-12T02:54:28;14.70;99.90
17988;DHT22;9119;50.932;5.342;2022-09-12T02:56:54;14.80;99.90
17988;DHT22;9119;50.932;5.342;2022-09-12T02:59:21;14.50;99.90
17988;DHT22;9119;50.932;5.342;2022-09-12T03:04:46;14.50;99.90
17988;DHT22;9119;50.932;5.342;2022-09-12T03:07:21;14.50;99.90
17988;DHT22;9119;50.932;5.342;2022-09-12T03:09:57;14.50;99.90
17988;DHT22;9119;50.932;5.342;2022-09-12T03:15:16;14.50;99.90
17988;DHT22;9119;50.932;5.342;2022-09-12T03:20:36;14.60;99.90
17988;DHT22;9119;50.932;5.342;2022-09-12T03:23:16;14.60;99.90
17988;DHT22;9119;50.932;5.342;2022-09-12T03:25:50;14.70;99.90
17988;DHT22;9119;50.932;5.342;2022-09-12T03:28:19;14.70;99.90
17988;DHT22;9119;50.932;5.342;2022-09-12T03:30:47;14.80;99.90
17988;DHT22;9119;50.932;5.342;2022-09-12T03:33:18;14.80;99.90
17988;DHT22;9119;50.932;5.342;2022-09-12T03:35:45;14.80;99.90
17988;DHT22;9119;50.932;5.342;2022-09-12T03:38:11;14.70;99.90
17988;DHT22;9119;50.932;5.342;2022-09-12T03:40:37;14.70;99.90
17988;DHT22;9119;50.932;5.342;2022-09-12T03:43:06;14.90;99.90
17988;DHT22;9119;50.932;5.342;2022-09-12T03:45:33;14.70;99.90
17988;DHT22;9119;50.932;5.342;2022-09-12T03:47:59;14.60;99.90
17988;DHT22;9119;50.932;5.342;2022-09-12T03:50:25;14.60;99.90
17988;DHT22;9119;50.932;5.342;2022-09-12T03:52:51;14.60;99.90
17988;DHT22;9119;50.932;5.342;2022-09-12T03:55:16;14.60;99.90
17988;DHT22;9119;50.932;5.342;2022-09-12T03:57:43;14.60;99.90
17988;DHT22;9119;50.932;5.342;2022-09-12T04:00:09;14.50;99.90
17988;DHT22;9119;50.932;5.342;2022-09-12T04:02:35;14.50;99.90
17988;DHT22;9119;50.932;5.342;2022-09-12T04:05:00;14.40;99.90
17988;DHT22;9119;50.932;5.342;2022-09-12T04:07:26;14.30;99.90
17988;DHT22;9119;50.932;5.342;2022-09-12T04:09:52;14.30;99.90
17988;DHT22;9119;50.932;5.342;2022-09-12T04:12:21;14.30;99.90
17988;DHT22;9119;50.932;5.342;2022-09-12T04:14:47;14.30;99.90
17988;DHT22;9119;50.932;5.342;2022-09-12T04:17:13;14.30;99.90
17988;DHT22;9119;50.932;5.342;2022-09-12T04:19:39;14.30;99.90
17988;DHT22;9119;50.932;5.342;2022-09-12T04:22:04;14.30;99.90
17988;DHT22;9119;50.932;5.342;2022-09-12T04:24:30;14.30;99.90
17988;DHT22;9119;50.932;5.342;2022-09-12T04:26:56;14.30;99.90
17988;DHT22;9119;50.932;5.342;2022-09-12T04:29:22;14.30;99.90
17988;DHT22;9119;50.932;5.342;2022-09-12T04:31:48;14.30;99.90
17988;DHT22;9119;50.932;5.342;2022-09-12T04:34:13;14.30;99.90
17988;DHT22;9119;50.932;5.342;2022-09-12T04:36:40;14.50;99.90
17988;DHT22;9119;50.932;5.342;2022-09-12T04:39:06;14.40;99.90
17988;DHT22;9119;50.932;5.342;2022-09-12T04:41:37;14.40;99.90
17988;DHT22;9119;50.932;5.342;2022-09-12T04:44:06;14.40;99.90
17988;DHT22;9119;50.932;5.342;2022-09-12T04:46:35;14.40;99.90
17988;DHT22;9119;50.932;5.342;2022-09-12T04:49:01;14.40;99.90
17988;DHT22;9119;50.932;5.342;2022-09-12T04:51:29;14.40;99.90
17988;DHT22;9119;50.932;5.342;2022-09-12T04:53:58;14.40;99.90
17988;DHT22;9119;50.932;5.342;2022-09-12T04:56:24;14.40;99.90
17988;DHT22;9119;50.932;5.342;2022-09-12T04:58:51;14.40;99.90
17988;DHT22;9119;50.932;5.342;2022-09-12T05:01:18;14.40;99.90
17988;DHT22;9119;50.932;5.342;2022-09-12T05:03:45;14.40;99.90
17988;DHT22;9119;50.932;5.342;2022-09-12T05:06:14;14.40;99.90
17988;DHT22;9119;50.932;5.342;2022-09-12T05:08:39;14.40;99.90
17988;DHT22;9119;50.932;5.342;2022-09-12T05:11:09;14.40;99.90
17988;DHT22;9119;50.932;5.342;2022-09-12T05:13:34;14.40;99.90
17988;DHT22;9119;50.932;5.342;2022-09-12T05:16:03;14.50;99.90
17988;DHT22;9119;50.932;5.342;2022-09-12T05:18:31;14.30;99.90
17988;DHT22;9119;50.932;5.342;2022-09-12T05:21:02;14.30;99.90
17988;DHT22;9119;50.932;5.342;2022-09-12T05:23:29;14.30;99.90
17988;DHT22;9119;50.932;5.342;2022-09-12T05:25:57;14.30;99.90
17988;DHT22;9119;50.932;5.342;2022-09-12T05:28:27;14.30;99.90
17988;DHT22;9119;50.932;5.342;2022-09-12T05:31:07;14.40;99.90
17988;DHT22;9119;50.932;5.342;2022-09-12T05:33:35;14.40;99.90
17988;DHT22;9119;50.932;5.342;2022-09-12T05:36:03;14.40;99.90
17988;DHT22;9119;50.932;5.342;2022-09-12T05:38:29;14.40;99.90
17988;DHT22;9119;50.932;5.342;2022-09-12T05:41:09;14.50;99.90
17988;DHT22;9119;50.932;5.342;2022-09-12T05:43:37;14.50;99.90
17988;DHT22;9119;50.932;5.342;2022-09-12T05:46:05;14.60;99.90
17988;DHT22;9119;50.932;5.342;2022-09-12T05:48:34;14.60;99.90
17988;DHT22;9119;50.932;5.342;2022-09-12T05:51:01;14.70;99.90
17988;DHT22;9119;50.932;5.342;2022-09-12T05:53:28;14.60;99.90
17988;DHT22;9119;50.932;5.342;2022-09-12T05:56:11;14.60;99.90
17988;DHT22;9119;50.932;5.342;2022-09-12T05:58:40;14.60;99.90
17988;DHT22;9119;50.932;5.342;2022-09-12T06:01:08;14.90;99.90
17988;DHT22;9119;50.932;5.342;2022-09-12T06:03:38;14.70;99.90
17988;DHT22;9119;50.932;5.342;2022-09-12T06:06:05;14.80;99.90
17988;DHT22;9119;50.932;5.342;2022-09-12T06:08:33;14.80;99.90
17988;DHT22;9119;50.932;5.342;2022-09-12T06:11:03;14.80;99.90
17988;DHT22;9119;50.932;5.342;2022-09-12T06:13:31;15.00;99.90
17988;DHT22;9119;50.932;5.342;2022-09-12T06:16:04;15.00;99.90
17988;DHT22;9119;50.932;5.342;2022-09-12T06:18:31;15.10;99.90
17988;DHT22;9119;50.932;5.342;2022-09-12T06:21:00;15.20;99.90
17988;DHT22;9119;50.932;5.342;2022-09-12T06:23:26;15.40;99.90
17988;DHT22;9119;50.932;5.342;2022-09-12T06:25:52;15.30;99.90
17988;DHT22;9119;50.932;5.342;2022-09-12T06:28:18;15.40;99.90
17988;DHT22;9119;50.932;5.342;2022-09-12T06:30:44;15.40;99.90
17988;DHT22;9119;50.932;5.342;2022-09-12T06:33:09;15.50;99.90
17988;DHT22;9119;50.932;5.342;2022-09-12T06:35:36;15.70;99.90
17988;DHT22;9119;50.932;5.342;2022-09-12T06:38:03;15.50;99.90
17988;DHT22;9119;50.932;5.342;2022-09-12T06:40:29;15.70;99.90
17988;DHT22;9119;50.932;5.342;2022-09-12T06:42:57;15.70;99.90
17988;DHT22;9119;50.932;5.342;2022-09-12T06:45:22;15.50;99.90
17988;DHT22;9119;50.932;5.342;2022-09-12T06:47:48;15.60;99.90
17988;DHT22;9119;50.932;5.342;2022-09-12T06:50:14;15.60;99.90
17988;DHT22;9119;50.932;5.342;2022-09-12T06:52:39;15.80;99.90
17988;DHT22;9119;50.932;5.342;2022-09-12T06:55:05;15.90;99.90
17988;DHT22;9119;50.932;5.342;2022-09-12T06:57:31;16.10;99.90
17988;DHT22;9119;50.932;5.342;2022-09-12T07:00:02;16.10;99.90
17988;DHT22;9119;50.932;5.342;2022-09-12T07:02:29;16.10;99.90
17988;DHT22;9119;50.932;5.342;2022-09-12T07:04:55;16.00;99.90
17988;DHT22;9119;50.932;5.342;2022-09-12T07:07:21;16.00;99.90
17988;DHT22;9119;50.932;5.342;2022-09-12T07:09:47;16.00;99.90
17988;DHT22;9119;50.932;5.342;2022-09-12T07:12:13;16.10;99.90
17988;DHT22;9119;50.932;5.342;2022-09-12T07:14:39;16.20;99.90
17988;DHT22;9119;50.932;5.342;2022-09-12T07:17:05;16.20;99.90
17988;DHT22;9119;50.932;5.342;2022-09-12T07:19:31;16.20;99.90
17988;DHT22;9119;50.932;5.342;2022-09-12T07:21:57;16.20;99.90
17988;DHT22;9119;50.932;5.342;2022-09-12T07:24:23;16.30;99.90
17988;DHT22;9119;50.932;5.342;2022-09-12T07:26:48;16.30;99.90
17988;DHT22;9119;50.932;5.342;2022-09-12T07:29:15;16.50;99.90
17988;DHT22;9119;50.932;5.342;2022-09-12T07:31:41;16.50;99.90
17988;DHT22;9119;50.932;5.342;2022-09-12T07:34:07;16.50;99.90
17988;DHT22;9119;50.932;5.342;2022-09-12T07:36:32;16.40;99.90
17988;DHT22;9119;50.932;5.342;2022-09-12T07:38:58;16.50;99.90
17988;DHT22;9119;50.932;5.342;2022-09-12T07:41:29;16.60;99.90
17988;DHT22;9119;50.932;5.342;2022-09-12T07:43:58;16.50;99.90
17988;DHT22;9119;50.932;5.342;2022-09-12T07:46:25;16.50;99.90
17988;DHT22;9119;50.932;5.342;2022-09-12T07:48:52;16.60;99.90
17988;DHT22;9119;50.932;5.342;2022-09-12T07:51:18;16.80;99.90
17988;DHT22;9119;50.932;5.342;2022-09-12T07:53:45;17.10;99.90
17988;DHT22;9119;50.932;5.342;2022-09-12T07:56:11;17.20;99.90
17988;DHT22;9119;50.932;5.342;2022-09-12T07:58:39;17.30;99.90
17988;DHT22;9119;50.932;5.342;2022-09-12T08:01:06;17.50;99.90
17988;DHT22;9119;50.932;5.342;2022-09-12T08:03:36;17.60;99.90
17988;DHT22;9119;50.932;5.342;2022-09-12T08:06:13;17.60;99.90
17988;DHT22;9119;50.932;5.342;2022-09-12T08:08:40;17.80;99.90
17988;DHT22;9119;50.932;5.342;2022-09-12T08:11:08;17.90;99.90
17988;DHT22;9119;50.932;5.342;2022-09-12T08:13:35;17.90;99.90
17988;DHT22;9119;50.932;5.342;2022-09-12T08:16:07;18.00;99.90
17988;DHT22;9119;50.932;5.342;2022-09-12T08:18:34;18.20;99.90
17988;DHT22;9119;50.932;5.342;2022-09-12T08:21:09;18.30;99.90
17988;DHT22;9119;50.932;5.342;2022-09-12T08:23:36;18.50;99.90
17988;DHT22;9119;50.932;5.342;2022-09-12T08:26:02;18.70;99.90
17988;DHT22;9119;50.932;5.342;2022-09-12T08:28:30;19.00;99.90
17988;DHT22;9119;50.932;5.342;2022-09-12T08:31:00;19.20;99.90
17988;DHT22;9119;50.932;5.342;2022-09-12T08:33:27;19.60;99.90
17988;DHT22;9119;50.932;5.342;2022-09-12T08:36:13;19.60;99.90
17988;DHT22;9119;50.932;5.342;2022-09-12T08:38:41;19.90;99.90
17988;DHT22;9119;50.932;5.342;2022-09-12T08:41:30;20.20;99.90
17988;DHT22;9119;50.932;5.342;2022-09-12T08:44:24;20.20;99.90
17988;DHT22;9119;50.932;5.342;2022-09-12T08:50:04;20.20;99.90
17988;DHT22;9119;50.932;5.342;2022-09-12T08:55:00;20.30;99.90
17988;DHT22;9119;50.932;5.342;2022-09-12T08:57:27;20.10;99.90
17988;DHT22;9119;50.932;5.342;2022-09-12T08:59:52;20.30;99.90
17988;DHT22;9119;50.932;5.342;2022-09-12T09:02:53;20.50;99.90
17988;DHT22;9119;50.932;5.342;2022-09-12T09:13:55;21.90;99.90
17988;DHT22;9119;50.932;5.342;2022-09-12T09:16:42;22.10;99.90
17988;DHT22;9119;50.932;5.342;2022-09-12T09:19:17;22.30;99.90
17988;DHT22;9119;50.932;5.342;2022-09-12T09:21:56;22.70;99.90
17988;DHT22;9119;50.932;5.342;2022-09-12T09:24:38;23.10;99.90
17988;DHT22;9119;50.932;5.342;2022-09-12T09:27:12;23.60;99.90
17988;DHT22;9119;50.932;5.342;2022-09-12T09:29:47;24.00;99.90
17988;DHT22;9119;50.932;5.342;2022-09-12T09:32:22;24.10;99.90
17988;DHT22;9119;50.932;5.342;2022-09-12T09:34:49;24.40;99.90
17988;DHT22;9119;50.932;5.342;2022-09-12T09:37:29;24.80;99.90
17988;DHT22;9119;50.932;5.342;2022-09-12T09:40:21;25.00;99.90
17988;DHT22;9119;50.932;5.342;2022-09-12T09:45:28;25.60;99.90
17988;DHT22;9119;50.932;5.342;2022-09-12T09:48:21;26.00;99.90
17988;DHT22;9119;50.932;5.342;2022-09-12T09:50:48;26.30;99.90
17988;DHT22;9119;50.932;5.342;2022-09-12T09:53:31;26.10;99.90
17988;DHT22;9119;50.932;5.342;2022-09-12T09:56:02;26.40;99.90
17988;DHT22;9119;50.932;5.342;2022-09-12T09:58:31;27.10;99.90
17988;DHT22;9119;50.932;5.342;2022-09-12T10:00:59;27.40;99.90
17988;DHT22;9119;50.932;5.342;2022-09-12T10:06:20;26.10;99.90
17988;DHT22;9119;50.932;5.342;2022-09-12T10:08:48;26.30;99.90
17988;DHT22;9119;50.932;5.342;2022-09-12T10:13:53;27.10;99.90
17988;DHT22;9119;50.932;5.342;2022-09-12T10:16:48;27.70;99.90
17988;DHT22;9119;50.932;5.342;2022-09-12T10:19:22;27.30;99.90
17988;DHT22;9119;50.932;5.342;2022-09-12T10:21:52;28.00;99.90
17988;DHT22;9119;50.932;5.342;2022-09-12T10:24:29;28.50;99.90
17988;DHT22;9119;50.932;5.342;2022-09-12T10:27:18;28.80;99.90
17988;DHT22;9119;50.932;5.342;2022-09-12T10:29:55;29.30;99.90
17988;DHT22;9119;50.932;5.342;2022-09-12T10:32:36;27.70;99.90
17988;DHT22;9119;50.932;5.342;2022-09-12T10:35:07;27.50;99.90
17988;DHT22;9119;50.932;5.342;2022-09-12T10:37:40;27.20;99.90
17988;DHT22;9119;50.932;5.342;2022-09-12T10:41:00;27.30;99.90
17988;DHT22;9119;50.932;5.342;2022-09-12T10:43:34;27.60;99.90
17988;DHT22;9119;50.932;5.342;2022-09-12T10:48:48;29.10;99.90
17988;DHT22;9119;50.932;5.342;2022-09-12T10:53:53;29.10;99.90
17988;DHT22;9119;50.932;5.342;2022-09-12T10:59:14;27.10;99.90
17988;DHT22;9119;50.932;5.342;2022-09-12T11:01:47;26.20;99.90
17988;DHT22;9119;50.932;5.342;2022-09-12T11:10:18;24.30;99.90
17988;DHT22;9119;50.932;5.342;2022-09-12T11:12:57;24.00;99.90
17988;DHT22;9119;50.932;5.342;2022-09-12T11:15:35;23.90;99.90
17988;DHT22;9119;50.932;5.342;2022-09-12T11:21:23;23.90;99.90
17988;DHT22;9119;50.932;5.342;2022-09-12T11:29:48;23.60;99.90
17988;DHT22;9119;50.932;5.342;2022-09-12T11:32:39;23.70;99.90
17988;DHT22;9119;50.932;5.342;2022-09-12T11:40:55;23.70;99.90
17988;DHT22;9119;50.932;5.342;2022-09-12T11:43:36;23.70;99.90
17988;DHT22;9119;50.932;5.342;2022-09-12T11:46:23;23.70;99.90
17988;DHT22;9119;50.932;5.342;2022-09-12T11:48:57;23.60;99.90
17988;DHT22;9119;50.932;5.342;2022-09-12T11:51:28;23.60;99.90
17988;DHT22;9119;50.932;5.342;2022-09-12T11:54:08;23.60;99.90
17988;DHT22;9119;50.932;5.342;2022-09-12T11:56:46;23.50;99.90
17988;DHT22;9119;50.932;5.342;2022-09-12T11:59:34;23.50;99.90
17988;DHT22;9119;50.932;5.342;2022-09-12T12:02:02;23.70;99.90
17988;DHT22;9119;50.932;5.342;2022-09-12T12:04:38;23.70;99.90
17988;DHT22;9119;50.932;5.342;2022-09-12T12:07:09;23.70;99.90
17988;DHT22;9119;50.932;5.342;2022-09-12T12:09:47;23.70;99.90
17988;DHT22;9119;50.932;5.342;2022-09-12T12:12:18;23.60;99.90
17988;DHT22;9119;50.932;5.342;2022-09-12T12:14:48;23.60;99.90
17988;DHT22;9119;50.932;5.342;2022-09-12T12:17:22;23.60;99.90
17988;DHT22;9119;50.932;5.342;2022-09-12T12:20:02;23.60;99.90
17988;DHT22;9119;50.932;5.342;2022-09-12T12:22:29;23.80;99.90
17988;DHT22;9119;50.932;5.342;2022-09-12T12:28:00;23.80;99.90
17988;DHT22;9119;50.932;5.342;2022-09-12T12:38:33;23.70;99.90
17988;DHT22;9119;50.932;5.342;2022-09-12T12:43:48;23.80;99.90
17988;DHT22;9119;50.932;5.342;2022-09-12T12:46:19;24.00;99.90
17988;DHT22;9119;50.932;5.342;2022-09-12T12:48:54;24.10;99.90
17988;DHT22;9119;50.932;5.342;2022-09-12T12:54:00;24.10;99.90
17988;DHT22;9119;50.932;5.342;2022-09-12T12:56:33;24.10;99.90
17988;DHT22;9119;50.932;5.342;2022-09-12T12:59:02;24.10;99.90
17988;DHT22;9119;50.932;5.342;2022-09-12T13:01:29;24.20;99.90
17988;DHT22;9119;50.932;5.342;2022-09-12T13:04:04;24.30;99.90
17988;DHT22;9119;50.932;5.342;2022-09-12T13:06:40;24.30;99.90
17988;DHT22;9119;50.932;5.342;2022-09-12T13:09:31;24.40;99.90
17988;DHT22;9119;50.932;5.342;2022-09-12T13:12:16;24.40;99.90
17988;DHT22;9119;50.932;5.342;2022-09-12T13:17:38;24.40;99.90
17988;DHT22;9119;50.932;5.342;2022-09-12T13:22:40;24.40;99.90
17988;DHT22;9119;50.932;5.342;2022-09-12T13:25:25;24.40;99.90
17988;DHT22;9119;50.932;5.342;2022-09-12T13:28:13;24.40;99.90
17988;DHT22;9119;50.932;5.342;2022-09-12T13:31:27;24.40;99.90
17988;DHT22;9119;50.932;5.342;2022-09-12T13:33:55;24.50;99.90
17988;DHT22;9119;50.932;5.342;2022-09-12T13:39:37;24.60;99.90
17988;DHT22;9119;50.932;5.342;2022-09-12T13:45:26;24.50;99.90
17988;DHT22;9119;50.932;5.342;2022-09-12T13:50:23;24.60;99.90
17988;DHT22;9119;50.932;5.342;2022-09-12T13:52:52;24.60;99.90
17988;DHT22;9119;50.932;5.342;2022-09-12T13:55:31;24.60;99.90
17988;DHT22;9119;50.932;5.342;2022-09-12T13:58:03;24.60;99.90
17988;DHT22;9119;50.932;5.342;2022-09-12T14:00:30;24.60;99.90
17988;DHT22;9119;50.932;5.342;2022-09-12T14:02:58;24.60;99.90
17988;DHT22;9119;50.932;5.342;2022-09-12T14:05:45;24.60;99.90
17988;DHT22;9119;50.932;5.342;2022-09-12T14:08:17;24.60;99.90
17988;DHT22;9119;50.932;5.342;2022-09-12T14:10:45;24.70;99.90
17988;DHT22;9119;50.932;5.342;2022-09-12T14:13:32;24.60;99.90
17988;DHT22;9119;50.932;5.342;2022-09-12T14:15:58;24.70;99.90
17988;DHT22;9119;50.932;5.342;2022-09-12T14:18:31;24.80;99.90
17988;DHT22;9119;50.932;5.342;2022-09-12T14:21:08;24.80;99.90
17988;DHT22;9119;50.932;5.342;2022-09-12T14:23:40;24.80;99.90
17988;DHT22;9119;50.932;5.342;2022-09-12T14:26:09;24.80;99.90
17988;DHT22;9119;50.932;5.342;2022-09-12T14:28:39;24.80;99.90
17988;DHT22;9119;50.932;5.342;2022-09-12T14:31:21;24.80;99.90
17988;DHT22;9119;50.932;5.342;2022-09-12T14:33:49;24.90;99.90
17988;DHT22;9119;50.932;5.342;2022-09-12T14:38:42;24.90;99.90
17988;DHT22;9119;50.932;5.342;2022-09-12T14:41:11;25.00;99.90
17988;DHT22;9119;50.932;5.342;2022-09-12T14:43:41;24.90;99.90
17988;DHT22;9119;50.932;5.342;2022-09-12T14:46:21;24.90;99.90
17988;DHT22;9119;50.932;5.342;2022-09-12T14:49:33;24.90;99.90
17988;DHT22;9119;50.932;5.342;2022-09-12T14:52:02;24.90;99.90
17988;DHT22;9119;50.932;5.342;2022-09-12T14:57:05;24.90;99.90
17988;DHT22;9119;50.932;5.342;2022-09-12T15:04:51;25.00;99.90
17988;DHT22;9119;50.932;5.342;2022-09-12T15:08:12;25.00;99.90
17988;DHT22;9119;50.932;5.342;2022-09-12T15:10:37;25.00;99.90
17988;DHT22;9119;50.932;5.342;2022-09-12T15:13:17;25.00;99.90
17988;DHT22;9119;50.932;5.342;2022-09-12T15:15:57;25.00;99.90
17988;DHT22;9119;50.932;5.342;2022-09-12T15:18:25;25.00;99.90
17988;DHT22;9119;50.932;5.342;2022-09-12T15:20:58;25.00;99.90
17988;DHT22;9119;50.932;5.342;2022-09-12T15:23:35;24.90;99.90
17988;DHT22;9119;50.932;5.342;2022-09-12T15:26:03;24.90;99.90
17988;DHT22;9119;50.932;5.342;2022-09-12T15:28:30;24.80;99.90
17988;DHT22;9119;50.932;5.342;2022-09-12T15:31:03;24.80;99.90
17988;DHT22;9119;50.932;5.342;2022-09-12T15:33:29;24.70;99.90
17988;DHT22;9119;50.932;5.342;2022-09-12T15:35:55;24.70;99.90
17988;DHT22;9119;50.932;5.342;2022-09-12T15:38:20;24.70;99.90
17988;DHT22;9119;50.932;5.342;2022-09-12T15:40:49;24.70;99.90
17988;DHT22;9119;50.932;5.342;2022-09-12T15:43:18;24.80;99.90
17988;DHT22;9119;50.932;5.342;2022-09-12T15:45:45;24.80;99.90
17988;DHT22;9119;50.932;5.342;2022-09-12T15:48:11;24.80;99.90
17988;DHT22;9119;50.932;5.342;2022-09-12T15:50:39;24.80;99.90
17988;DHT22;9119;50.932;5.342;2022-09-12T15:53:04;24.70;99.90
17988;DHT22;9119;50.932;5.342;2022-09-12T15:55:31;24.70;99.90
17988;DHT22;9119;50.932;5.342;2022-09-12T15:57:57;24.70;99.90
17988;DHT22;9119;50.932;5.342;2022-09-12T16:00:23;24.70;99.90
17988;DHT22;9119;50.932;5.342;2022-09-12T16:02:50;24.70;99.90
17988;DHT22;9119;50.932;5.342;2022-09-12T16:05:21;24.60;99.90
17988;DHT22;9119;50.932;5.342;2022-09-12T16:07:53;24.60;99.90
17988;DHT22;9119;50.932;5.342;2022-09-12T16:10:21;24.70;99.90
17988;DHT22;9119;50.932;5.342;2022-09-12T16:12:47;24.60;99.90
17988;DHT22;9119;50.932;5.342;2022-09-12T16:15:22;24.70;99.90
17988;DHT22;9119;50.932;5.342;2022-09-12T16:17:48;24.60;99.90
17988;DHT22;9119;50.932;5.342;2022-09-12T16:20:14;24.60;99.90
17988;DHT22;9119;50.932;5.342;2022-09-12T16:22:41;24.50;99.90
17988;DHT22;9119;50.932;5.342;2022-09-12T16:25:07;24.50;99.90
17988;DHT22;9119;50.932;5.342;2022-09-12T16:27:33;24.50;99.90
17988;DHT22;9119;50.932;5.342;2022-09-12T16:29:59;24.40;99.90
17988;DHT22;9119;50.932;5.342;2022-09-12T16:32:25;24.30;99.90
17988;DHT22;9119;50.932;5.342;2022-09-12T16:34:50;24.30;99.90
17988;DHT22;9119;50.932;5.342;2022-09-12T16:37:16;24.40;99.90
17988;DHT22;9119;50.932;5.342;2022-09-12T16:39:42;24.50;99.90
17988;DHT22;9119;50.932;5.342;2022-09-12T16:42:08;24.50;99.90
17988;DHT22;9119;50.932;5.342;2022-09-12T16:44:33;24.60;99.90
17988;DHT22;9119;50.932;5.342;2022-09-12T16:46:59;24.60;99.90
17988;DHT22;9119;50.932;5.342;2022-09-12T16:49:25;24.60;99.90
17988;DHT22;9119;50.932;5.342;2022-09-12T16:51:50;24.60;99.90
17988;DHT22;9119;50.932;5.342;2022-09-12T16:54:18;24.50;99.90
17988;DHT22;9119;50.932;5.342;2022-09-12T16:56:44;24.50;99.90
17988;DHT22;9119;50.932;5.342;2022-09-12T16:59:11;24.40;99.90
17988;DHT22;9119;50.932;5.342;2022-09-12T17:01:41;24.40;99.90
17988;DHT22;9119;50.932;5.342;2022-09-12T17:04:06;24.40;99.90
17988;DHT22;9119;50.932;5.342;2022-09-12T17:06:34;24.30;99.90
17988;DHT22;9119;50.932;5.342;2022-09-12T17:09:00;24.20;99.90
17988;DHT22;9119;50.932;5.342;2022-09-12T17:11:33;24.20;99.90
17988;DHT22;9119;50.932;5.342;2022-09-12T17:14:00;24.20;99.90
17988;DHT22;9119;50.932;5.342;2022-09-12T17:16:27;24.10;99.90
17988;DHT22;9119;50.932;5.342;2022-09-12T17:18:53;24.10;99.90
17988;DHT22;9119;50.932;5.342;2022-09-12T17:21:20;24.00;99.90
17988;DHT22;9119;50.932;5.342;2022-09-12T17:23:46;24.00;99.90
17988;DHT22;9119;50.932;5.342;2022-09-12T17:26:15;24.00;99.90
17988;DHT22;9119;50.932;5.342;2022-09-12T17:28:41;23.90;99.90
17988;DHT22;9119;50.932;5.342;2022-09-12T17:31:10;23.90;99.90
17988;DHT22;9119;50.932;5.342;2022-09-12T17:33:37;23.90;99.90
17988;DHT22;9119;50.932;5.342;2022-09-12T17:36:06;23.60;99.90
17988;DHT22;9119;50.932;5.342;2022-09-12T17:38:37;23.80;99.90
17988;DHT22;9119;50.932;5.342;2022-09-12T17:41:10;23.70;99.90
17988;DHT22;9119;50.932;5.342;2022-09-12T17:43:39;23.60;99.90
17988;DHT22;9119;50.932;5.342;2022-09-12T17:46:05;23.60;99.90
17988;DHT22;9119;50.932;5.342;2022-09-12T17:48:31;23.60;99.90
17988;DHT22;9119;50.932;5.342;2022-09-12T17:50:57;23.50;99.90
17988;DHT22;9119;50.932;5.342;2022-09-12T17:53:26;23.50;99.90
17988;DHT22;9119;50.932;5.342;2022-09-12T17:55:52;23.30;99.90
17988;DHT22;9119;50.932;5.342;2022-09-12T17:58:23;23.30;99.90
17988;DHT22;9119;50.932;5.342;2022-09-12T18:00:48;23.30;99.90
17988;DHT22;9119;50.932;5.342;2022-09-12T18:03:32;23.20;99.90
17988;DHT22;9119;50.932;5.342;2022-09-12T18:05:59;23.20;99.90
17988;DHT22;9119;50.932;5.342;2022-09-12T18:08:25;23.40;99.90
17988;DHT22;9119;50.932;5.342;2022-09-12T18:10:51;23.20;99.90
17988;DHT22;9119;50.932;5.342;2022-09-12T18:13:17;23.20;99.90
17988;DHT22;9119;50.932;5.342;2022-09-12T18:15:42;23.10;99.90
17988;DHT22;9119;50.932;5.342;2022-09-12T18:18:08;23.10;99.90